Tiempo atmosférico en la estación meteorológica de Palma, Universidad, Illes Balears (80 m.)



Fecha
DESCASC
Temp. máxima en grados centígrados (hora)
DESCASC
Temp. mínima en grados centígrados (hora)
DESCASC
Temp. media en grados centígrados
DESCASC
Racha de viento máxima en m/sg (hora)
DESCASC
Velocidad máxima media en intervalos de 10 minutos(hora)
DESCASC
Precipitaciones diarias en mm
DESCASC
Precipitaciones de 00:00 a 06:00 en mm
DESCASC
Precipitaciones de 06:00 a 12:00 en mm
DESCASC
Precipitaciones de 12:00 a 18:00 en mm
DESCASC
Precipitaciones de 18:00 a 24:00 en mm
DESCASC

Gráficas

Temp. máximas Temp. mínimas Temp. medias Precipitaciones Rachas de viento máximas Velocidades máximas media en intervalos de 10 minutos

Datos horarios

Fecha y hora oficial Temperatura (ºC) Velocidad del viento (km/h) Dirección del viento Racha (km/h) Dirección de racha Precipitación (mm) Presión (hPa) Tendencia (hPa) Humedad (%)
2019-12-15 23:00:00 8.6 0 Calma 4 Norte 0 -- -- 99
2019-12-15 22:00:00 8 0 Calma 4 Norte 0 -- -- 99
2019-12-15 21:00:00 7.2 0 Calma 4 Norte 0 -- -- 98
2019-12-15 20:00:00 7.7 2 Norte 4 Norte 0 -- -- 97
2019-12-15 19:00:00 8.7 3 Norte 5 Norte 0 -- -- 94
2019-12-15 18:00:00 10 3 Norte 4 Norte 0 -- -- 90
2019-12-15 17:00:00 13.7 4 Sur 20 Sur 0 -- -- 78
2019-12-15 16:00:00 15.2 13 Sur 21 Sur 0 -- -- 70
2019-12-15 15:00:00 16.9 10 Sudoeste 22 Sudoeste 0 -- -- 62
2019-12-15 14:00:00 17.5 13 Sudoeste 26 Sudoeste 0 -- -- 56
2019-12-15 13:00:00 18.1 10 Sudoeste 23 Sudoeste 0 -- -- 57
2019-12-15 12:00:00 18.1 9 Sudoeste 15 Sur 0 -- -- 66
2019-12-15 11:00:00 18.3 2 Este 5 Sudeste 0 -- -- 67
2019-12-15 10:00:00 14.1 0 Calma 4 Norte 0 -- -- 95
2019-12-15 09:00:00 7.3 0 Calma 6 Sudoeste 0 -- -- 100
2019-12-15 08:00:00 5.9 3 Norte 6 Norte 0 -- -- 100
2019-12-15 07:00:00 5.6 2 Norte 6 Norte 0 -- -- 99
2019-12-15 06:00:00 5.1 4 Norte 6 Norte 0 -- -- 99
2019-12-15 05:00:00 5.3 2 Nordeste 5 Norte 0 -- -- 98
2019-12-15 04:00:00 6.5 0 Calma 13 Oeste 0 -- -- 97
2019-12-15 03:00:00 7.7 6 Oeste 18 Oeste 0 -- -- 100
2019-12-15 02:00:00 6.1 3 Norte 5 Norte 0 -- -- 98
2019-12-15 01:00:00 7 0 Calma 6 Oeste 0 -- -- 97
2019-12-15 00:00:00 6.6 0 Calma 4 Oeste 0 -- -- 96
2019-12-14 23:00:00 6.8 3 Este 7 Oeste 0 -- -- 94
2019-12-14 22:00:00 8.2 2 Noroeste 14 Sudoeste 0 -- -- 89
2019-12-14 21:00:00 12.2 10 Sudoeste 17 Sudoeste 0 -- -- 84
2019-12-14 20:00:00 9.1 0 Calma 4 Norte 0 -- -- 92
2019-12-14 19:00:00 10.7 0 Calma 4 Sur 0 -- -- 88
2019-12-14 18:00:00 13.1 2 Noroeste 13 Este 0 -- -- 75
2019-12-14 17:00:00 16.8 6 Noroeste 17 Noroeste 0 -- -- 54
2019-12-14 16:00:00 19.3 5 Noroeste 18 Oeste 0 -- -- 49
2019-12-14 15:00:00 19.9 5 Noroeste 22 Oeste 0 -- -- 48
2019-12-14 14:00:00 18.9 15 Oeste 27 Sudoeste 0 -- -- 50
2019-12-14 13:00:00 19.4 15 Oeste 28 Oeste 0 -- -- 50
2019-12-14 12:00:00 20 11 Noroeste 28 Oeste 0 -- -- 49
2019-12-14 11:00:00 20 10 Noroeste 24 Oeste 0 -- -- 47
2019-12-14 10:00:00 18.7 8 Oeste 27 Noroeste 0 -- -- 53
2019-12-14 09:00:00 16.5 10 Noroeste 18 Oeste 0 -- -- 63
2019-12-14 08:00:00 15.3 7 Oeste 21 Oeste 0 -- -- 66
2019-12-14 07:00:00 12.1 4 Noroeste 13 Oeste 0 -- -- 80
2019-12-14 06:00:00 11.6 0 Calma 9 Sudoeste 0 -- -- 83
2019-12-14 05:00:00 15.1 2 Sudeste 30 Oeste 0 -- -- 72
2019-12-14 04:00:00 15.9 8 Noroeste 41 Noroeste 0 -- -- 74
2019-12-14 03:00:00 16.1 9 Noroeste 40 Noroeste 0 -- -- 74
2019-12-14 02:00:00 17.3 7 Noroeste 30 Oeste 0 -- -- 63
2019-12-14 01:00:00 18.3 14 Noroeste 40 Noroeste 0 -- -- 59
2019-12-14 00:00:00 18.5 12 Oeste 42 Noroeste 0 -- -- 58
2019-12-13 23:00:00 18.8 15 Noroeste 40 Noroeste 0 -- -- 56
2019-12-13 22:00:00 18.7 13 Noroeste 36 Oeste 0 -- -- 57
2019-12-13 21:00:00 18.1 11 Noroeste 39 Noroeste 0 -- -- 61
2019-12-13 20:00:00 19 13 Noroeste 56 Noroeste 0 -- -- 55
2019-12-13 19:00:00 19.3 24 Noroeste 55 Noroeste 0 -- -- 54
2019-12-13 18:00:00 18.6 30 Noroeste 55 Noroeste 0 -- -- 57
2019-12-13 17:00:00 18.7 23 Noroeste 55 Noroeste 0 -- -- 56
2019-12-13 16:00:00 18.7 29 Noroeste 56 Oeste 0 -- -- 56
2019-12-13 15:00:00 18.6 19 Noroeste 47 Oeste 0 -- -- 58
2019-12-13 14:00:00 18.8 19 Noroeste 46 Noroeste 0 -- -- 58
2019-12-13 13:00:00 19 20 Oeste 56 Oeste 0 -- -- 58
2019-12-13 12:00:00 19.1 21 Oeste 48 Oeste 0 -- -- 57
2019-12-13 11:00:00 19.1 15 Oeste 39 Sudoeste 0 -- -- 58
2019-12-13 10:00:00 17.2 5 Sudoeste 32 Oeste 0 -- -- 70
2019-12-13 09:00:00 16.8 14 Oeste 36 Sudoeste 0 -- -- 69
2019-12-13 08:00:00 16 14 Oeste 41 Oeste 0 -- -- 73
2019-12-13 07:00:00 15.9 17 Oeste 37 Oeste 0 -- -- 71
2019-12-13 06:00:00 14.2 4 Oeste 17 Oeste 0 -- -- 74
2019-12-13 05:00:00 16.2 13 Noroeste 37 Oeste 0 -- -- 62
2019-12-13 04:00:00 16 8 Oeste 36 Oeste 0 -- -- 61
2019-12-13 03:00:00 15.7 17 Oeste 40 Oeste 0 -- -- 63
2019-12-13 02:00:00 15.1 11 Sudoeste 35 Oeste 0 -- -- 64
2019-12-13 01:00:00 14.4 13 Oeste 28 Oeste 0 -- -- 67
2019-12-13 00:00:00 11.3 2 Sudoeste 27 Sudoeste 0 -- -- 76
2019-12-12 23:00:00 13.6 12 Oeste 38 Oeste 0 -- -- 67
2019-12-12 22:00:00 13.4 12 Oeste 37 Oeste 0 -- -- 72
2019-12-12 21:00:00 13.8 12 Oeste 39 Oeste 0 -- -- 66
2019-12-12 20:00:00 12.8 8 Sudoeste 21 Oeste 0 -- -- 74
2019-12-12 19:00:00 11.1 2 Oeste 18 Oeste 0 -- -- 77
2019-12-12 18:00:00 12 6 Noroeste 15 Noroeste 0 -- -- 74
2019-12-12 17:00:00 12.8 3 Sudoeste 21 Oeste 0 -- -- 72
2019-12-12 16:00:00 13.5 9 Noroeste 23 Noroeste 0 -- -- 66
2019-12-12 15:00:00 14.2 8 Noroeste 23 Noroeste 0 -- -- 64
2019-12-12 14:00:00 14.9 13 Oeste 37 Oeste 0 -- -- 56
2019-12-12 13:00:00 15.8 11 Oeste 30 Oeste 0 -- -- 56
2019-12-12 12:00:00 15.9 14 Oeste 27 Oeste 0 -- -- 54
2019-12-12 11:00:00 15.1 8 Oeste 31 Oeste 0 -- -- 56
2019-12-12 10:00:00 14 10 Noroeste 35 Noroeste 0 -- -- 57
2019-12-12 09:00:00 13.1 15 Oeste 33 Oeste 0 -- -- 57
2019-12-12 08:00:00 12.9 11 Oeste 31 Oeste 0 -- -- 57
2019-12-12 07:00:00 12.7 10 Oeste 31 Oeste 0 -- -- 60
2019-12-12 06:00:00 12.6 5 Oeste 27 Oeste 0 -- -- 59
2019-12-12 05:00:00 12.6 6 Oeste 28 Oeste 0 -- -- 59
2019-12-12 04:00:00 12.6 7 Oeste 21 Sur 0 -- -- 59
2019-12-12 03:00:00 10.3 3 Sudoeste 32 Noroeste 0 -- -- 70
2019-12-12 02:00:00 12.3 10 Noroeste 35 Oeste 0 -- -- 56
2019-12-12 01:00:00 12.2 11 Noroeste 30 Oeste 0 -- -- 60
2019-12-12 00:00:00 12.5 8 Noroeste 26 Noroeste 0 -- -- 57
2019-12-11 23:00:00 12.8 11 Noroeste 29 Oeste 0 -- -- 67
2019-12-11 22:00:00 12.7 7 Norte 45 Noroeste 0 -- -- 67
2019-12-11 21:00:00 12.9 15 Noroeste 37 Noroeste 0 -- -- 70
2019-12-11 20:00:00 13 20 Noroeste 59 Noroeste 0 -- -- 69
2019-12-11 19:00:00 13.6 20 Noroeste 49 Noroeste 0 -- -- 68
2019-12-11 18:00:00 12.9 10 Noroeste 31 Oeste 0 -- -- 77
2019-12-11 17:00:00 13.9 8 Noroeste 19 Noroeste 0 -- -- 70
2019-12-11 16:00:00 16.8 5 Norte 12 Norte 0 -- -- 59
2019-12-11 15:00:00 16.1 5 Oeste 22 Sudoeste 0 -- -- 58
2019-12-11 14:00:00 17.2 12 Sudoeste 23 Sudoeste 0 -- -- 57
2019-12-11 13:00:00 16.8 5 Sudeste 13 Sur 0 -- -- 75
2019-12-11 12:00:00 15.7 6 Sur 11 Sur 0 -- -- 76
2019-12-11 11:00:00 14.9 0 Calma 4 Norte 0 -- -- 80
2019-12-11 10:00:00 10.4 0 Calma 5 Norte 0 -- -- 99
2019-12-11 09:00:00 5.8 3 Norte 5 Norte 0 -- -- 100
2019-12-11 08:00:00 3.1 0 Calma 3 Norte 0 -- -- 100
2019-12-11 07:00:00 2.9 0 Calma 5 Norte 0 -- -- 100
2019-12-11 06:00:00 3.4 0 Calma 6 Norte 0 -- -- 100
2019-12-11 05:00:00 3.2 2 Este 3 Nordeste 0 -- -- 99
2019-12-11 04:00:00 3.7 0 Calma 3 Sur 0 -- -- 99
2019-12-11 03:00:00 3.8 2 Norte 6 Oeste 0 -- -- 98
2019-12-11 02:00:00 4.5 0 Calma 8 Norte 0 -- -- 97
2019-12-11 01:00:00 5.3 2 Norte 9 Sudeste 0 -- -- 94
2019-12-11 00:00:00 7.8 3 Sudoeste 14 Noroeste 0 -- -- 87
2019-12-10 23:00:00 9.3 6 Oeste 13 Oeste 0 -- -- 89
2019-12-10 22:00:00 7.4 3 Noroeste 9 Norte 0 -- -- 97
2019-12-10 21:00:00 6.6 3 Norte 8 Norte 0 -- -- 95
2019-12-10 20:00:00 7.6 4 Norte 12 Noroeste 0 -- -- 89
2019-12-10 19:00:00 10.7 6 Oeste 15 Oeste 0 -- -- 81
2019-12-10 18:00:00 10.6 5 Oeste 13 Oeste 0 -- -- 77
2019-12-10 17:00:00 12.4 5 Oeste 15 Oeste 0 -- -- 74
2019-12-10 16:00:00 14.2 8 Noroeste 20 Noroeste 0 -- -- 63
2019-12-10 15:00:00 14.7 11 Sur 20 Sur 0 -- -- 63
2019-12-10 14:00:00 15.5 9 Sur 15 Sur 0 -- -- 60
2019-12-10 13:00:00 15.7 7 Sur 15 Sudoeste 0 -- -- 59
2019-12-10 12:00:00 17.1 4 Sudeste 11 Norte 0 -- -- 55
2019-12-10 11:00:00 15.4 8 Nordeste 19 Norte 0 -- -- 58
2019-12-10 10:00:00 15.1 3 Nordeste 22 Norte 0 -- -- 59
2019-12-10 09:00:00 12.9 6 Nordeste 28 Norte 0 -- -- 68
2019-12-10 08:00:00 12 9 Norte 41 Norte 0 -- -- 71
2019-12-10 07:00:00 12.2 16 Norte 47 Noroeste 0 -- -- 70
2019-12-10 06:00:00 12.5 16 Noroeste 44 Norte 0 -- -- 69
2019-12-10 05:00:00 12.5 15 Noroeste 40 Norte 0 -- -- 70
2019-12-10 04:00:00 12.5 13 Noroeste 45 Noroeste 0 -- -- 71
2019-12-10 03:00:00 12.6 13 Noroeste 42 Noroeste 0 -- -- 70
2019-12-10 02:00:00 12.9 18 Noroeste 45 Oeste 0 -- -- 69
2019-12-10 01:00:00 13.1 19 Noroeste 52 Noroeste 0 -- -- 67
2019-12-10 00:00:00 13.3 22 Noroeste 49 Noroeste 0 -- -- 67
2019-12-09 23:00:00 13.5 25 Noroeste 51 Noroeste 0 -- -- 66
2019-12-09 22:00:00 13.7 22 Noroeste 49 Noroeste 0 -- -- 63
2019-12-09 21:00:00 14.2 24 Noroeste 47 Noroeste 0 -- -- 63
2019-12-09 20:00:00 14.1 18 Noroeste 45 Noroeste 0 -- -- 64
2019-12-09 19:00:00 14.3 21 Noroeste 54 Noroeste 0 -- -- 64
2019-12-09 18:00:00 14.5 23 Noroeste 56 Noroeste 0 -- -- 59
2019-12-09 17:00:00 14.7 18 Noroeste 41 Noroeste 0 -- -- 62
2019-12-09 16:00:00 14.9 17 Noroeste 42 Noroeste 0 -- -- 58
2019-12-09 15:00:00 15.6 21 Noroeste 46 Oeste 0 -- -- 56
2019-12-09 14:00:00 17 22 Noroeste 58 Noroeste 0 -- -- 51
2019-12-09 13:00:00 17.1 26 Noroeste 58 Noroeste 0 -- -- 45
2019-12-09 12:00:00 16.7 24 Noroeste 55 Noroeste 0 -- -- 53
2019-12-09 11:00:00 16.1 26 Noroeste 60 Noroeste 0 -- -- 51
2019-12-09 10:00:00 15.2 26 Noroeste 55 Noroeste 0 -- -- 62
2019-12-09 09:00:00 14.2 21 Noroeste 43 Noroeste 0 -- -- 66
2019-12-09 08:00:00 13.5 18 Noroeste 42 Noroeste 0 -- -- 77
2019-12-09 07:00:00 13.2 12 Norte 28 Noroeste 0 -- -- 81
2019-12-09 06:00:00 13.5 12 Noroeste 36 Noroeste 0 -- -- 75
2019-12-09 05:00:00 13.8 8 Noroeste 34 Norte 0 -- -- 78
2019-12-09 04:00:00 13.9 9 Oeste 21 Oeste 0 -- -- 79
2019-12-09 03:00:00 13.6 6 Oeste 21 Oeste 0 -- -- 92
2019-12-09 02:00:00 10.2 0 Calma -- -- 0 -- -- 100
2019-12-09 01:00:00 9.7 0 Calma 4 Norte 0 -- -- 100
2019-12-09 00:00:00 8.8 0 Calma 5 Norte 0 -- -- 100
2019-12-08 23:00:00 6.4 3 Norte 5 Norte 0 -- -- 100
2019-12-08 22:00:00 6.6 0 Calma 3 Norte 0 -- -- 100
2019-12-08 21:00:00 6.9 0 Calma 3 Nordeste 0 -- -- 99
2019-12-08 20:00:00 7.8 0 Calma 5 Norte 0 -- -- 97
2019-12-08 19:00:00 8.7 3 Norte 8 Oeste 0 -- -- 94
2019-12-08 18:00:00 11.4 2 Oeste 13 Sudoeste 0 -- -- 88
2019-12-08 17:00:00 14.1 4 Sudoeste 9 Sur 0 -- -- 81
2019-12-08 16:00:00 16.4 3 Este 10 Norte 0 -- -- 74
2019-12-08 15:00:00 17.4 4 Sudoeste 9 Sur 0 -- -- 70
2019-12-08 14:00:00 17.7 5 Sur 10 Sudeste 0 -- -- 73
2019-12-08 13:00:00 17.3 5 Sur 14 Sudeste 0 -- -- 74
2019-12-08 12:00:00 16.6 8 Sur 13 Sudeste 0 -- -- 78
2019-12-08 11:00:00 15.1 4 Sur 9 Sur 0 -- -- 95
2019-12-08 10:00:00 12.6 0 Calma 4 Sudeste 0 -- -- 100
2019-12-08 09:00:00 7.1 0 Calma 4 Norte 0 -- -- 100
2019-12-08 08:00:00 4.1 0 Calma 3 Norte 0 -- -- 100
2019-12-08 07:00:00 4.4 0 Calma 2 Norte 0 -- -- 100
2019-12-08 06:00:00 4.8 0 Calma 5 Norte 0 -- -- 100
2019-12-08 05:00:00 4.4 0 Calma 4 Norte 0 -- -- 100
2019-12-08 04:00:00 4.4 3 Norte 7 Norte 0 -- -- 100
2019-12-08 03:00:00 4.5 0 Calma 4 Norte 0 -- -- 100
2019-12-08 02:00:00 4.8 0 Calma 2 Norte 0.2 -- -- 100
2019-12-08 01:00:00 5.4 0 Calma 3 Norte 0 -- -- 100
2019-12-08 00:00:00 6 2 Norte 5 Norte 0 -- -- 100
2019-12-07 23:00:00 6.2 0 Calma 3 Oeste 0 -- -- 100
2019-12-07 22:00:00 6.4 0 Calma 3 Norte 0 -- -- 100
2019-12-07 21:00:00 6.7 0 Calma 3 Sudoeste 0 -- -- 100
2019-12-07 20:00:00 7.5 2 Norte 4 Norte 0 -- -- 100
2019-12-07 19:00:00 8 0 Calma 4 Norte 0 -- -- 99
2019-12-07 18:00:00 9.4 0 Calma 5 Norte 0 -- -- 97
2019-12-07 17:00:00 11.3 2 Norte 5 Sudoeste 0 -- -- 95
2019-12-07 16:00:00 13.9 0 Calma 4 Sudeste 0 -- -- 89
2019-12-07 15:00:00 15.1 0 Calma 8 Nordeste 0 -- -- 83
2019-12-07 14:00:00 15.1 4 Nordeste 10 Este 0 -- -- 84
2019-12-07 13:00:00 15.4 6 Sudeste 10 Sur 0 -- -- 88
2019-12-07 12:00:00 15.3 2 Sudeste 5 Sudeste 0 -- -- 98
2019-12-07 11:00:00 11.6 3 Oeste 8 Oeste 0 -- -- 100
2019-12-07 10:00:00 8.5 0 Calma 2 Norte 0 -- -- 100
2019-12-07 09:00:00 6.4 0 Calma 4 Norte 0 -- -- 100
2019-12-07 08:00:00 5.7 0 Calma 5 Norte 0 -- -- 100
2019-12-07 07:00:00 5.6 3 Norte 5 Norte 0 -- -- 100
2019-12-07 06:00:00 6.3 0 Calma 9 Norte 0 -- -- 100
2019-12-07 05:00:00 7.4 6 Nordeste 9 Norte 0 -- -- 100
2019-12-07 04:00:00 6.6 0 Calma 2 Norte 0 -- -- 100
2019-12-07 03:00:00 6.6 0 Calma 3 Norte 0 -- -- 100
2019-12-07 02:00:00 6.8 4 Norte 6 Norte 0 -- -- 100
2019-12-07 01:00:00 7.3 0 Calma 4 Norte 0 -- -- 100
2019-12-07 00:00:00 7.9 0 Calma 3 Sudoeste 0 -- -- 100
2019-12-06 23:00:00 8.7 0 Calma 3 Norte 0 -- -- 99
2019-12-06 22:00:00 10.4 2 Sudoeste 7 Norte 0 -- -- 99
2019-12-06 21:00:00 11.6 0 Calma 4 Norte 0 -- -- 98
2019-12-06 20:00:00 12.2 0 Calma 4 Norte 0 -- -- 96
2019-12-06 19:00:00 12.8 2 Norte 6 Este 0 -- -- 93
2019-12-06 18:00:00 13.6 0 Calma 8 Nordeste 0 -- -- 90
2019-12-06 17:00:00 15.7 4 Este 9 Este 0 -- -- 81
2019-12-06 16:00:00 17.1 3 Oeste 11 Norte 0 -- -- 74
2019-12-06 15:00:00 17.3 6 Noroeste 11 Norte 0 -- -- 72
2019-12-06 14:00:00 18.3 3 Norte 11 Norte 0 -- -- 71
2019-12-06 13:00:00 18.5 4 Sur 10 Sudeste 0 -- -- 71
2019-12-06 12:00:00 18.4 3 Sudeste 6 Sudeste 0 -- -- 71
2019-12-06 11:00:00 15.7 2 Sur 8 Nordeste 0 -- -- 98
2019-12-06 10:00:00 10.4 0 Calma -- -- 0 -- -- 100
2019-12-06 09:00:00 8.5 0 Calma 5 Norte 0 -- -- 100
2019-12-06 08:00:00 8.7 0 Calma 3 Norte 0 -- -- 100
2019-12-06 07:00:00 8.7 0 Calma 5 Norte 0 -- -- 100
2019-12-06 06:00:00 8.4 4 Norte 6 Norte 0 -- -- 100
2019-12-06 05:00:00 8.5 0 Calma 6 Norte 0 -- -- 100
2019-12-06 04:00:00 8.9 2 Noroeste 5 Sudoeste 0 -- -- 100
2019-12-06 03:00:00 7.8 0 Calma 9 Oeste 0 -- -- 100
2019-12-06 02:00:00 7.9 3 Sudoeste 10 Oeste 0 -- -- 100
2019-12-06 01:00:00 7.9 0 Calma 4 Norte 0 -- -- 100
2019-12-06 00:00:00 7.9 0 Calma 3 Norte 0 -- -- 100
2019-12-05 23:00:00 7.5 3 Norte 6 Norte 0 -- -- 100
2019-12-05 22:00:00 8.2 3 Sudoeste 6 Nordeste 0 -- -- 100
2019-12-05 21:00:00 8.4 2 Norte 6 Norte 0 -- -- 100
2019-12-05 20:00:00 10.1 4 Norte 10 Norte 0 -- -- 100
2019-12-05 19:00:00 9.7 0 Calma 6 Norte 0 -- -- 98
2019-12-05 18:00:00 10.8 3 Norte 4 Norte 0 -- -- 95
2019-12-05 17:00:00 14 0 Calma 8 Sudeste 0 -- -- 88
2019-12-05 16:00:00 16.3 3 Nordeste 11 Noroeste 0 -- -- 81
2019-12-05 15:00:00 16.5 6 Sur 19 Sur 0 -- -- 78
2019-12-05 14:00:00 15.5 12 Sur 19 Sur 0 -- -- 83
2019-12-05 13:00:00 17.4 7 Sudeste 13 Sudoeste 0 -- -- 74
2019-12-05 12:00:00 16.6 7 Sur 10 Sudeste 0 -- -- 80
2019-12-05 11:00:00 16 4 Sur 6 Sur 0 -- -- 92
2019-12-05 10:00:00 13.4 2 Norte 8 Sudoeste 0.2 -- -- 99
2019-12-05 09:00:00 8.4 0 Calma 3 Norte 0 -- -- 100
2019-12-05 08:00:00 6 2 Norte 7 Norte 0 -- -- 100
2019-12-05 07:00:00 6.3 0 Calma 7 Norte 0 -- -- 100
2019-12-05 06:00:00 6.5 2 Norte 7 Norte 0 -- -- 100
2019-12-05 05:00:00 6.9 0 Calma 8 Norte 0 -- -- 100
2019-12-05 04:00:00 6.8 5 Norte 9 Norte 0 -- -- 100
2019-12-05 03:00:00 6.7 2 Noroeste 6 Norte 0 -- -- 100
2019-12-05 02:00:00 6.1 0 Calma 4 Norte 0 -- -- 100
2019-12-05 01:00:00 6.1 0 Calma 4 Norte 0 -- -- 100
2019-12-05 00:00:00 7.4 3 Sudoeste 8 Oeste 0 -- -- 100
2019-12-04 23:00:00 6.6 0 Calma 5 Norte 0 -- -- 100
2019-12-04 22:00:00 7.3 3 Norte 7 Oeste 0 -- -- 100
2019-12-04 21:00:00 7.9 0 Calma 12 Norte 0 -- -- 100
2019-12-04 20:00:00 8.1 0 Calma 6 Norte 0 -- -- 99
2019-12-04 19:00:00 9 0 Calma 11 Oeste 0 -- -- 99
2019-12-04 18:00:00 9.5 0 Calma 4 Nordeste 0 -- -- 98
2019-12-04 17:00:00 11.2 2 Noroeste 13 Oeste 0 -- -- 96
2019-12-04 16:00:00 11.3 3 Sudoeste 25 Este 0 -- -- 97
2019-12-04 15:00:00 10.7 13 Este 23 Este 0.2 -- -- 98
2019-12-04 14:00:00 11.2 2 Norte 8 Norte 2 -- -- 99
2019-12-04 13:00:00 10.6 0 Calma 17 Norte 1.4 -- -- 99
2019-12-04 12:00:00 10.9 6 Norte 16 Sur 7 -- -- 98
2019-12-04 11:00:00 12.6 9 Sudoeste 26 Este 2.2 -- -- 96
2019-12-04 10:00:00 12.2 5 Noroeste 9 Este 1.4 -- -- 97
2019-12-04 09:00:00 11.4 5 Norte 15 Nordeste 0.2 -- -- 94
2019-12-04 08:00:00 12.7 4 Oeste 21 Este 0.6 -- -- 95
2019-12-04 07:00:00 12.6 18 Este 32 Este 0.8 -- -- 97
2019-12-04 06:00:00 11.5 15 Nordeste 31 Nordeste 3.2 -- -- 98
2019-12-04 05:00:00 10.5 16 Sudeste 42 Sudeste 16.2 -- -- 98
2019-12-04 04:00:00 10.1 8 Norte 29 Nordeste 6.2 -- -- 99
2019-12-04 03:00:00 9.9 9 Norte 45 Este 20.6 -- -- 97
2019-12-04 02:00:00 14.5 16 Nordeste 46 Este 4 -- -- 96
2019-12-04 01:00:00 14.5 12 Nordeste 37 Este 10.2 -- -- 97
2019-12-04 00:00:00 14.9 16 Nordeste 39 Nordeste 1.2 -- -- 93
2019-12-03 23:00:00 14.4 11 Nordeste 40 Este 3 -- -- 93
2019-12-03 22:00:00 15.6 13 Nordeste 32 Este 0 -- -- 81
2019-12-03 21:00:00 15.5 12 Nordeste 30 Este 0 -- -- 80
2019-12-03 20:00:00 15.5 15 Nordeste 32 Este 0 -- -- 77
2019-12-03 19:00:00 14.7 15 Nordeste 36 Este 0 -- -- 77
2019-12-03 18:00:00 13.4 4 Norte 22 Este 0 -- -- 78
2019-12-03 17:00:00 13.8 9 Este 26 Nordeste 0 -- -- 78
2019-12-03 16:00:00 14.6 10 Este 24 Nordeste 0 -- -- 74
2019-12-03 15:00:00 15.4 10 Nordeste 27 Norte 0 -- -- 67
2019-12-03 14:00:00 15.2 13 Nordeste 30 Este 0 -- -- 66
2019-12-03 13:00:00 15.3 8 Este 17 Este 0 -- -- 67
2019-12-03 12:00:00 14.5 11 Este 21 Este 0 -- -- 70
2019-12-03 11:00:00 15.1 8 Nordeste 14 Nordeste 0 -- -- 68
2019-12-03 10:00:00 12.7 0 Calma 5 Nordeste 0 -- -- 98
2019-12-03 09:00:00 8.7 0 Calma 8 Norte 0 -- -- 100
2019-12-03 08:00:00 7.8 0 Calma 9 Sudoeste 0 -- -- 100
2019-12-03 07:00:00 7.7 0 Calma 4 Noroeste 0 -- -- 100
2019-12-03 06:00:00 7.7 0 Calma 4 Oeste 0 -- -- 100
2019-12-03 05:00:00 8 0 Calma 5 Norte 0 -- -- 99
2019-12-03 04:00:00 9.1 0 Calma 9 Oeste 0.2 -- -- 98
2019-12-03 03:00:00 9.2 0 Calma 8 Nordeste 0.2 -- -- 99
2019-12-03 02:00:00 8.9 0 Calma 5 Norte 0 -- -- 99
2019-12-03 01:00:00 8.8 0 Calma 3 Norte 0 -- -- 98
2019-12-03 00:00:00 9.1 0 Calma 6 Noroeste 0 -- -- 97
2019-12-02 23:00:00 9.2 0 Calma 4 Sudoeste 0 -- -- 97
2019-12-02 22:00:00 8.8 3 Noroeste 8 Oeste 0 -- -- 96
2019-12-02 21:00:00 8.7 0 Calma 9 Nordeste 0 -- -- 96
2019-12-02 20:00:00 8.6 0 Calma 12 Sudeste 0 -- -- 94
2019-12-02 19:00:00 9.5 0 Calma 13 Este 0 -- -- 89
2019-12-02 18:00:00 11.2 0 Calma 24 Nordeste 0 -- -- 82
2019-12-02 17:00:00 13.4 13 Este 33 Este 0 -- -- 76
2019-12-02 16:00:00 14.4 19 Este 36 Este 0 -- -- 72
2019-12-02 15:00:00 14.9 18 Este 30 Este 0 -- -- 73
2019-12-02 14:00:00 14.7 13 Este 30 Nordeste 0 -- -- 76
2019-12-02 13:00:00 14.9 12 Este 24 Este 0 -- -- 75
2019-12-02 12:00:00 13.9 9 Nordeste 25 Este 0.2 -- -- 83
2019-12-02 11:00:00 13.6 9 Este 17 Este 0 -- -- 87
2019-12-02 10:00:00 13 6 Nordeste 12 Nordeste 0 -- -- 97
2019-12-02 09:00:00 12.8 9 Nordeste 22 Este 0 -- -- 99
2019-12-02 08:00:00 12.3 6 Nordeste 18 Este 0 -- -- 100
2019-12-02 07:00:00 11.6 0 Calma 8 Nordeste 0.2 -- -- 100
2019-12-02 06:00:00 12.4 3 Norte 8 Norte 1.6 -- -- 100
2019-12-02 05:00:00 13 5 Nordeste 11 Sur 13 -- -- 100
2019-12-02 04:00:00 12.7 2 Sudoeste 8 Sudoeste 0.2 -- -- 100
2019-12-02 03:00:00 11.7 0 Calma -- -- 0 -- -- 100
2019-12-02 02:00:00 12.1 0 Calma 0 Calma 0 -- -- 100
2019-12-02 01:00:00 11.7 0 Calma -- -- 0 -- -- 99
2019-12-02 00:00:00 11.9 0 Calma -- -- 0 -- -- 99
2019-12-01 23:00:00 11.2 0 Calma 3 Sudoeste 0 -- -- 99
2019-12-01 22:00:00 11.1 0 Calma 3 Norte 0 -- -- 99
2019-12-01 21:00:00 10.7 0 Calma 2 Este 0 -- -- 98
2019-12-01 20:00:00 10.9 2 Norte 6 Norte 0 -- -- 96
2019-12-01 19:00:00 12 2 Norte 4 Noroeste 0 -- -- 94
2019-12-01 18:00:00 13.4 3 Oeste 6 Oeste 0 -- -- 90
2019-12-01 17:00:00 15.6 0 Calma 10 Noroeste 0 -- -- 81
2019-12-01 16:00:00 16.6 5 Noroeste 15 Noroeste 0 -- -- 77
2019-12-01 15:00:00 17.6 7 Noroeste 15 Noroeste 0 -- -- 72
2019-12-01 14:00:00 19 9 Noroeste 22 Sudoeste 0 -- -- 63
2019-12-01 13:00:00 19 11 Sudoeste 19 Sudoeste 0 -- -- 70
2019-12-01 12:00:00 17 8 Sudoeste 18 Sudoeste 0 -- -- 79
2019-12-01 11:00:00 16.7 5 Sudoeste 13 Sudoeste 0 -- -- 89
2019-12-01 10:00:00 15.2 2 Sur 6 Nordeste 0 -- -- 100
2019-12-01 09:00:00 14.6 3 Norte 5 Norte 0 -- -- 100
2019-12-01 08:00:00 12.8 2 Norte 8 Norte 0 -- -- 100
2019-12-01 07:00:00 12.3 3 Norte 4 Norte 0 -- -- 100
2019-12-01 06:00:00 12.3 0 Calma 6 Nordeste 0 -- -- 100
2019-12-01 05:00:00 12.8 2 Norte 5 Norte 0 -- -- 100
2019-12-01 04:00:00 12.8 2 Noroeste 5 Norte 0 -- -- 100
2019-12-01 03:00:00 13 0 Calma 4 Norte 0 -- -- 100
2019-12-01 02:00:00 12.8 0 Calma 4 Norte 0 -- -- 100
2019-12-01 01:00:00 12.2 2 Norte 4 Norte 0 -- -- 100
2019-12-01 00:00:00 11.3 2 Norte 6 Norte 0 -- -- 100
2019-11-30 23:00:00 10.7 4 Norte 5 Norte 0 -- -- 100
2019-11-30 22:00:00 11 0 Calma 5 Norte 0 -- -- 99
2019-11-30 21:00:00 11.8 3 Norte 4 Norte 0 -- -- 98
2019-11-30 20:00:00 12.4 0 Calma 3 Norte 0 -- -- 98
2019-11-30 19:00:00 12.4 0 Calma 5 Norte 0 -- -- 96
2019-11-30 18:00:00 13.2 4 Norte 10 Sur 0 -- -- 93
2019-11-30 17:00:00 15.7 7 Sur 17 Sur 0 -- -- 89
2019-11-30 16:00:00 16.7 11 Sur 18 Sur 0 -- -- 87
2019-11-30 15:00:00 17 10 Sur 19 Sur 0 -- -- 86
2019-11-30 14:00:00 17.3 9 Sur 15 Sur 0 -- -- 84
2019-11-30 13:00:00 17.7 9 Sur 17 Sur 0 -- -- 82
2019-11-30 12:00:00 17.2 7 Sur 12 Sur 0 -- -- 83
2019-11-30 11:00:00 18.4 3 Sudeste 8 Sur 0 -- -- 83
2019-11-30 10:00:00 15.2 3 Nordeste 4 Nordeste 0 -- -- 98
2019-11-30 09:00:00 10.8 0 Calma 5 Norte 0 -- -- 100
2019-11-30 08:00:00 6.9 0 Calma -- -- 0 -- -- 100
2019-11-30 07:00:00 7.6 0 Calma 4 Norte 0 -- -- 100
2019-11-30 06:00:00 7.6 0 Calma 4 Norte 0 -- -- 100
2019-11-30 05:00:00 8 0 Calma 3 Norte 0 -- -- 100
2019-11-30 04:00:00 8.7 0 Calma 3 Norte 0 -- -- 100
2019-11-30 03:00:00 9 0 Calma 3 Nordeste 0 -- -- 100
2019-11-30 02:00:00 9.6 0 Calma 2 Norte 0 -- -- 100
2019-11-30 01:00:00 8.8 0 Calma 0 Calma 0 -- -- 100
2019-11-30 00:00:00 8.5 0 Calma 6 Norte 0 -- -- 100
2019-11-29 23:00:00 8.1 0 Calma -- -- 0 -- -- 99
2019-11-29 22:00:00 8.6 0 Calma -- -- 0 -- -- 99
2019-11-29 21:00:00 8.9 0 Calma -- -- 0 -- -- 97
2019-11-29 20:00:00 9.5 0 Calma 5 Norte 0 -- -- 97
2019-11-29 19:00:00 11.1 2 Norte 6 Norte 0 -- -- 96
2019-11-29 18:00:00 12.9 0 Calma 6 Norte 0 -- -- 92
2019-11-29 17:00:00 17.1 0 Calma 10 Este 0 -- -- 79
2019-11-29 16:00:00 19.6 3 Sur 9 Este 0 -- -- 64
2019-11-29 15:00:00 19.6 6 Este 18 Sudeste 0 -- -- 68
2019-11-29 14:00:00 21.3 8 Sudeste 14 Este 0 -- -- 62
2019-11-29 13:00:00 21.6 3 Oeste 12 Sudoeste 0 -- -- 51
2019-11-29 12:00:00 19.5 7 Sudeste 10 Sudeste 0 -- -- 63
2019-11-29 11:00:00 19.2 5 Sudoeste 11 Sudoeste 0 -- -- 66
2019-11-29 10:00:00 13.6 4 Sudoeste 6 Sudoeste 0 -- -- 97
2019-11-29 09:00:00 10.5 0 Calma 11 Oeste 0 -- -- 100
2019-11-29 08:00:00 10.3 7 Oeste 10 Oeste 0 -- -- 100
2019-11-29 07:00:00 8.2 4 Norte 6 Oeste 0 -- -- 100
2019-11-29 06:00:00 7.7 0 Calma 4 Norte 0 -- -- 100
2019-11-29 05:00:00 7.4 2 Norte 5 Norte 0 -- -- 99
2019-11-29 04:00:00 8 2 Norte 6 Norte 0 -- -- 99
2019-11-29 03:00:00 7.7 0 Calma 8 Norte 0 -- -- 98
2019-11-29 02:00:00 9.6 4 Noroeste 14 Sudoeste 0 -- -- 98
2019-11-29 01:00:00 7.9 0 Calma 4 Norte 0 -- -- 98
2019-11-29 00:00:00 8.3 0 Calma 6 Nordeste 0 -- -- 98
2019-11-28 23:00:00 8 0 Calma 5 Sur 0 -- -- 96
2019-11-28 22:00:00 8.5 0 Calma 6 Noroeste 0 -- -- 94
2019-11-28 21:00:00 9.4 6 Norte 10 Norte 0 -- -- 91
2019-11-28 20:00:00 14 4 Oeste 20 Oeste 0 -- -- 77
2019-11-28 19:00:00 10.6 4 Norte 8 Sudeste 0 -- -- 89
2019-11-28 18:00:00 12.3 2 Oeste 13 Oeste 0 -- -- 83
2019-11-28 17:00:00 15.4 2 Sudeste 18 Oeste 0 -- -- 70
2019-11-28 16:00:00 17 8 Oeste 24 Oeste 0 -- -- 62
2019-11-28 15:00:00 17.8 12 Sudoeste 28 Sudoeste 0 -- -- 65
2019-11-28 14:00:00 19.9 12 Sudoeste 24 Sudoeste 0 -- -- 58
2019-11-28 13:00:00 20.4 10 Oeste 20 Oeste 0 -- -- 46
2019-11-28 12:00:00 19.5 10 Noroeste 19 Oeste 0 -- -- 54
2019-11-28 11:00:00 19.8 6 Sudoeste 15 Sur 0 -- -- 57
2019-11-28 10:00:00 18.3 6 Sudoeste 16 Sudoeste 0 -- -- 64
2019-11-28 09:00:00 15.9 6 Sudoeste 14 Oeste 0 -- -- 73
2019-11-28 08:00:00 11.5 8 Oeste 14 Oeste 0 -- -- 89
2019-11-28 07:00:00 11.9 7 Oeste 16 Oeste 0 -- -- 100
2019-11-28 06:00:00 8.1 3 Oeste 9 Sudoeste 0 -- -- 100
2019-11-28 05:00:00 7.9 6 Oeste 12 Noroeste 0 -- -- 100
2019-11-28 04:00:00 7.4 0 Calma 3 Sudoeste 0 -- -- 100
2019-11-28 03:00:00 8.3 0 Calma 5 Norte 0 -- -- 100
2019-11-28 02:00:00 7.8 0 Calma 6 Norte 0 -- -- 100
2019-11-28 01:00:00 7.4 2 Nordeste 6 Norte 0 -- -- 99
2019-11-28 00:00:00 7.8 6 Norte 11 Norte 0 -- -- 99
2019-11-27 23:00:00 8.3 2 Norte 9 Norte 0 -- -- 99
2019-11-27 22:00:00 8.8 0 Calma 5 Sudoeste 0 -- -- 98
2019-11-27 21:00:00 9.7 2 Oeste 8 Oeste 0 -- -- 97
2019-11-27 20:00:00 10 3 Oeste 7 Norte 0 -- -- 96
2019-11-27 19:00:00 11.2 3 Sudoeste 7 Norte 0 -- -- 94
2019-11-27 18:00:00 12.7 0 Calma 7 Norte 0 -- -- 88
2019-11-27 17:00:00 16.5 5 Noroeste 15 Norte 0 -- -- 73
2019-11-27 16:00:00 17.8 9 Noroeste 26 Noroeste 0 -- -- 70
2019-11-27 15:00:00 17.8 9 Oeste 30 Oeste 0 -- -- 73
2019-11-27 14:00:00 18.3 15 Noroeste 45 Noroeste 0 -- -- 72
2019-11-27 06:00:00 14.6 5 Norte 24 Sur 0 -- -- 89
2019-11-27 05:00:00 14.7 2 Oeste 13 Sudeste 0 -- -- 99
2019-11-27 04:00:00 12.6 3 Nordeste 13 Este 0 -- -- 100
2019-11-27 03:00:00 12.4 0 Calma 7 Nordeste 0 -- -- 100
2019-11-27 02:00:00 12.6 0 Calma 8 Norte 0 -- -- 98
2019-11-27 01:00:00 12.2 4 Norte 7 Norte 0 -- -- 97
2019-11-27 00:00:00 13 4 Norte 6 Norte 0 -- -- 97
2019-11-26 23:00:00 13.8 0 Calma 14 Sudoeste 0 -- -- 97
2019-11-26 22:00:00 11.7 2 Norte 6 Norte 0 -- -- 98
2019-11-26 21:00:00 11.1 2 Nordeste 8 Norte 0 -- -- 98
2019-11-26 20:00:00 11.7 4 Noroeste 9 Oeste 0 -- -- 97
2019-11-26 19:00:00 10.8 0 Calma 6 Oeste 0 -- -- 94
2019-11-26 18:00:00 12.7 2 Norte 17 Sur 0 -- -- 87
2019-11-26 17:00:00 16.5 7 Sur 19 Sudoeste 0 -- -- 73
2019-11-26 16:00:00 18.1 8 Sudoeste 20 Oeste 0 -- -- 63
2019-11-26 15:00:00 18.5 13 Sur 22 Sur 0 -- -- 69
2019-11-26 14:00:00 19.1 12 Sur 20 Sur 0 -- -- 69
2019-11-26 13:00:00 19.1 6 Sur 15 Sudeste 0 -- -- 76
2019-11-26 12:00:00 17.7 3 Sur 14 Sudeste 0 -- -- 81
2019-11-26 11:00:00 19.1 2 Norte 6 Nordeste 0 -- -- 78
2019-11-26 10:00:00 16 0 Calma 9 Noroeste 0 -- -- 97
2019-11-26 09:00:00 9.9 4 Norte 8 Norte 0 -- -- 100
2019-11-26 08:00:00 6.1 0 Calma 2 Norte 0 -- -- 100
2019-11-26 07:00:00 6.2 0 Calma 3 Norte 0 -- -- 100
2019-11-26 06:00:00 6.6 0 Calma 6 Norte 0 -- -- 100
2019-11-26 05:00:00 6.9 0 Calma 5 Norte 0 -- -- 99
2019-11-26 04:00:00 6.9 0 Calma 4 Sudoeste 0 -- -- 99
2019-11-26 03:00:00 7 2 Norte 5 Norte 0 -- -- 98
2019-11-26 02:00:00 7.5 0 Calma 4 Norte 0 -- -- 98
2019-11-26 01:00:00 7.5 0 Calma 4 Norte 0 -- -- 97
2019-11-26 00:00:00 7.8 0 Calma 3 Oeste 0 -- -- 95
2019-11-25 23:00:00 8.9 0 Calma 4 Oeste -- -- -- 94
2019-11-25 22:00:00 9.2 0 Calma 3 Sudeste 0 -- -- 91
2019-11-25 21:00:00 10.7 0 Calma 7 Oeste 0 -- -- 85
2019-11-25 20:00:00 13.5 5 Noroeste 13 Noroeste 0 -- -- 73
2019-11-25 19:00:00 14.2 5 Norte 19 Noroeste 0 -- -- 70
2019-11-25 18:00:00 14.7 11 Noroeste 17 Noroeste 0 -- -- 72
2019-11-25 17:00:00 15.5 5 Noroeste 15 Noroeste 0 -- -- 69
2019-11-25 16:00:00 17.9 4 Noroeste 20 Norte 0 -- -- 59
2019-11-25 15:00:00 18.8 5 Norte 22 Oeste 0 -- -- 57
2019-11-25 14:00:00 18.7 10 Noroeste 23 Oeste 0 -- -- 55
2019-11-25 13:00:00 18.9 11 Oeste 26 Noroeste 0 -- -- 53
2019-11-25 12:00:00 19 9 Noroeste 19 Norte 0 -- -- 56
2019-11-25 11:00:00 17.8 6 Sur 10 Sur 0 -- -- 65
2019-11-25 10:00:00 15 4 Noroeste 9 Noroeste 0 -- -- 80
2019-11-25 09:00:00 13.3 3 Oeste 7 Oeste 0 -- -- 93
2019-11-25 08:00:00 7.6 2 Oeste 8 Oeste 0 -- -- 97
2019-11-25 07:00:00 7.3 0 Calma 9 Oeste 0 -- -- 96
2019-11-25 06:00:00 6.6 2 Sudoeste 5 Sudoeste 0 -- -- 96
2019-11-25 05:00:00 6.7 0 Calma 8 Oeste 0 -- -- 92
2019-11-25 04:00:00 8.9 4 Sudoeste 15 Oeste 0 -- -- 87
2019-11-25 03:00:00 12.7 8 Oeste 17 Noroeste 0 -- -- 74
2019-11-25 02:00:00 9.6 3 Sudoeste 12 Sudoeste 0 -- -- 83
2019-11-25 01:00:00 10.6 3 Sur 15 Oeste 0 -- -- 75
2019-11-25 00:00:00 12.6 8 Oeste 20 Noroeste 0 -- -- 66
2019-11-24 23:00:00 13.1 10 Noroeste 22 Norte 0 -- -- 66
2019-11-24 22:00:00 12.4 6 Noroeste 14 Noroeste 0 -- -- 72
2019-11-24 21:00:00 13.1 6 Noroeste 28 Noroeste 0 -- -- 70
2019-11-24 20:00:00 13.8 9 Oeste 27 Noroeste 0 -- -- 68
2019-11-24 19:00:00 13.3 8 Noroeste 24 Noroeste 0 -- -- 70
2019-11-24 18:00:00 13.3 7 Noroeste 26 Noroeste 0 -- -- 71
2019-11-24 17:00:00 13.4 10 Noroeste 31 Noroeste 0 -- -- 70
2019-11-24 16:00:00 13.8 10 Noroeste 28 Noroeste 0 -- -- 69
2019-11-24 15:00:00 14.1 10 Noroeste 39 Oeste 0 -- -- 66
2019-11-24 14:00:00 14.7 18 Oeste 36 Noroeste 0 -- -- 61
2019-11-24 13:00:00 15 19 Noroeste 40 Oeste 0 -- -- 61
2019-11-24 12:00:00 15.4 14 Noroeste 38 Oeste 0 -- -- 61
2019-11-24 11:00:00 13.7 14 Noroeste 36 Noroeste 0 -- -- 63
2019-11-24 10:00:00 14.2 8 Norte 30 Oeste 0 -- -- 63
2019-11-24 09:00:00 13.6 6 Noroeste 39 Noroeste 0 -- -- 62
2019-11-24 08:00:00 13.3 13 Noroeste 40 Oeste 0 -- -- 66
2019-11-24 07:00:00 13.3 15 Oeste 40 Oeste 0 -- -- 63
2019-11-24 06:00:00 13.6 18 Oeste 44 Oeste 0 -- -- 62
2019-11-24 05:00:00 13.6 20 Noroeste 46 Oeste 0 -- -- 60
2019-11-24 04:00:00 13.5 13 Oeste 46 Noroeste 0 -- -- 64
2019-11-24 03:00:00 13.3 5 Sur 55 Noroeste 0 -- -- 65
2019-11-24 02:00:00 13.6 22 Noroeste 57 Oeste 0 -- -- 65
2019-11-24 01:00:00 13.8 24 Noroeste 65 Noroeste 0 -- -- 61
2019-11-24 00:00:00 14 24 Noroeste 55 Noroeste 0 -- -- 60
2019-11-23 23:00:00 14 21 Noroeste 51 Noroeste 0 -- -- 58
2019-11-23 22:00:00 14.2 22 Noroeste 56 Noroeste 0 -- -- 57
2019-11-23 21:00:00 14.5 29 Noroeste 63 Noroeste 0 -- -- 53
2019-11-23 20:00:00 14.7 18 Noroeste 51 Noroeste 0 -- -- 52
2019-11-23 19:00:00 14.3 20 Noroeste 68 Noroeste 0.2 -- -- 57
2019-11-23 18:00:00 14.2 17 Noroeste 41 Noroeste 0 -- -- 61
2019-11-23 17:00:00 13.6 10 Oeste 36 Oeste 0 -- -- 69
2019-11-23 16:00:00 12.6 12 Oeste 45 Oeste 0.2 -- -- 73
2019-11-23 15:00:00 13 10 Oeste 33 Nordeste 0 -- -- 78
2019-11-23 14:00:00 12.8 12 Oeste 39 Noroeste 2.6 -- -- 83
2019-11-23 13:00:00 11.5 6 Noroeste 50 Norte 2.4 -- -- 90
2019-11-23 12:00:00 15.8 7 Oeste 23 Oeste 0 -- -- 69
2019-11-23 11:00:00 14.9 11 Oeste 36 Oeste 0 -- -- 67
2019-11-23 10:00:00 14.4 13 Oeste 31 Sudoeste 0 -- -- 72
2019-11-23 09:00:00 15.9 10 Oeste 29 Oeste 0 -- -- 66
2019-11-23 08:00:00 15.1 12 Sudoeste 35 Oeste 0.2 -- -- 62
2019-11-23 07:00:00 15.4 14 Oeste 30 Sudoeste 0 -- -- 61
2019-11-23 06:00:00 14.8 8 Oeste 24 Oeste 0 -- -- 75
2019-11-23 05:00:00 14.8 5 Sudoeste 20 Sudoeste 0 -- -- 78
2019-11-23 04:00:00 15.3 6 Sudoeste 28 Oeste 0 -- -- 87
2019-11-23 03:00:00 16.1 11 Sudoeste 28 Sudoeste 0.6 -- -- 92
2019-11-23 02:00:00 16.2 13 Sudoeste 39 Sudoeste 0 -- -- 92
2019-11-23 01:00:00 15.2 17 Sur 56 Sudoeste 1.8 -- -- 97
2019-11-23 00:00:00 15.3 24 Sur 48 Sur 3.4 -- -- 98
2019-11-22 23:00:00 15 17 Sur 43 Sur 7.2 -- -- 99
2019-11-22 22:00:00 14.4 23 Sur 41 Sur 7.4 -- -- 98
2019-11-22 21:00:00 15.1 24 Sur 47 Sur 2.2 -- -- 94
2019-11-22 20:00:00 15.6 19 Sur 37 Sur 0.4 -- -- 92
2019-11-22 19:00:00 15.8 18 Sur 39 Sur 0.2 -- -- 88
2019-11-22 18:00:00 15.9 19 Sur 37 Sur 0.2 -- -- 90
2019-11-22 17:00:00 15.8 13 Sur 26 Sudoeste 0.2 -- -- 89
2019-11-22 16:00:00 16.3 13 Sur 30 Sudoeste 0 -- -- 87
2019-11-22 15:00:00 16.5 15 Sur 35 Sur 0 -- -- 86
2019-11-22 14:00:00 17.4 14 Sur 32 Sur 0 -- -- 83
2019-11-22 13:00:00 16.9 13 Sudoeste 26 Sur 0 -- -- 84
2019-11-22 12:00:00 15.3 0 Calma 6 Norte 0 -- -- 99
2019-11-22 11:00:00 14.1 4 Este 8 Este 0 -- -- 100
2019-11-22 10:00:00 13.2 2 Sudoeste 6 Nordeste 1 -- -- 100
2019-11-22 09:00:00 12.1 0 Calma 5 Norte 0.6 -- -- 100
2019-11-22 08:00:00 11.1 0 Calma -- -- 0.2 -- -- 100
2019-11-22 07:00:00 11.2 0 Calma 4 Noroeste 0 -- -- 100
2019-11-22 06:00:00 10.8 2 Norte 4 Noroeste 0 -- -- 100
2019-11-22 05:00:00 10.4 0 Calma 4 Sudeste 0.6 -- -- 100
2019-11-22 04:00:00 10.1 0 Calma 4 Norte 0.2 -- -- 100
2019-11-22 03:00:00 9.6 4 Norte 5 Norte 0 -- -- 100
2019-11-22 02:00:00 9.2 0 Calma 3 Norte 0 -- -- 100
2019-11-22 01:00:00 8.9 2 Norte 4 Norte 0 -- -- 100
2019-11-22 00:00:00 8.4 2 Norte 5 Norte 0 -- -- 99
2019-11-21 23:00:00 7.8 0 Calma 4 Norte 0 -- -- 98
2019-11-21 22:00:00 8.7 0 Calma 6 Norte 0 -- -- 98
2019-11-21 21:00:00 8.6 0 Calma 5 Norte 0 -- -- 97
2019-11-21 20:00:00 8.7 0 Calma 3 Norte 0 -- -- 96
2019-11-21 19:00:00 9.4 0 Calma 4 Norte 0 -- -- 94
2019-11-21 18:00:00 10.5 0 Calma 4 Oeste 0 -- -- 89
2019-11-21 17:00:00 13.1 2 Oeste 18 Oeste 0 -- -- 76
2019-11-21 16:00:00 14.4 7 Oeste 19 Oeste 0 -- -- 65
2019-11-21 15:00:00 15.1 8 Oeste 22 Sudoeste 0 -- -- 65
2019-11-21 14:00:00 15.1 8 Sudoeste 22 Sudoeste 0 -- -- 67
2019-11-21 13:00:00 15.2 10 Sudoeste 27 Oeste 0 -- -- 67
2019-11-21 12:00:00 15.7 12 Oeste 22 Oeste 0 -- -- 65
2019-11-21 11:00:00 15.6 7 Sudoeste 20 Sudoeste 0 -- -- 71
2019-11-21 10:00:00 14.2 7 Sudoeste 18 Sudoeste 0 -- -- 97
2019-11-21 09:00:00 10 2 Norte 3 Norte 0 -- -- 100
2019-11-21 08:00:00 6 0 Calma 4 Norte 0 -- -- 100
2019-11-21 07:00:00 6.5 0 Calma 5 Norte 0 -- -- 100
2019-11-21 06:00:00 7.6 0 Calma 5 Norte 0 -- -- 100
2019-11-21 05:00:00 8.6 3 Norte 5 Norte 0 -- -- 100
2019-11-21 04:00:00 8.5 3 Norte 11 Oeste 0.4 -- -- 100
2019-11-21 03:00:00 7.3 0 Calma 4 Norte 0 -- -- 100
2019-11-21 02:00:00 7 2 Norte 4 Norte 0 -- -- 100
2019-11-21 01:00:00 6.7 0 Calma 4 Este 0 -- -- 100
2019-11-21 00:00:00 5.9 0 Calma 3 Norte 0 -- -- 100
2019-11-20 23:00:00 5.6 0 Calma 3 Sudoeste 0 -- -- 100
2019-11-20 22:00:00 5.7 0 Calma 6 Sudoeste 0 -- -- 99
2019-11-20 21:00:00 6.1 0 Calma 2 Norte 0 -- -- 99
2019-11-20 20:00:00 7.3 0 Calma 5 Norte 0 -- -- 99
2019-11-20 19:00:00 8.1 0 Calma 4 Norte 0 -- -- 98
2019-11-20 18:00:00 9 0 Calma 3 Norte 0 -- -- 96
2019-11-20 17:00:00 11.6 0 Calma 7 Norte 0 -- -- 96
2019-11-20 16:00:00 11.4 3 Norte 9 Este 1.6 -- -- 92
2019-11-20 15:00:00 13.6 4 Este 9 Sudeste 0 -- -- 69
2019-11-20 14:00:00 14.2 3 Sur 8 Este 0 -- -- 66
2019-11-20 13:00:00 14.6 3 Este 8 Este 0 -- -- 65
2019-11-20 12:00:00 13.2 0 Calma 4 Sudeste 0 -- -- 88
2019-11-20 11:00:00 10.9 0 Calma 2 Norte 0 -- -- 100
2019-11-20 10:00:00 7.9 0 Calma 2 Norte 0 -- -- 100
2019-11-20 09:00:00 5.4 0 Calma 3 Sudoeste 0 -- -- 100
2019-11-20 08:00:00 3 0 Calma 3 Norte 0 -- -- 100
2019-11-20 07:00:00 2.3 0 Calma 3 Sudoeste 0 -- -- 100
2019-11-20 06:00:00 2.2 0 Calma 3 Sur 0 -- -- 100
2019-11-20 05:00:00 2.2 0 Calma 0 Calma 0 -- -- 100
2019-11-20 04:00:00 2.6 0 Calma 0 Calma 0.2 -- -- 100
2019-11-20 03:00:00 2.7 0 Calma 2 Nordeste 0 -- -- 100
2019-11-20 02:00:00 2.7 0 Calma 4 Norte 0 -- -- 100
2019-11-20 01:00:00 2.5 0 Calma 3 Sur 0 -- -- 100
2019-11-20 00:00:00 3 0 Calma 5 Norte 0 -- -- 99
2019-11-19 23:00:00 3.4 0 Calma 5 Norte 0 -- -- 99
2019-11-19 22:00:00 3.2 0 Calma 2 Sur 0 -- -- 98
2019-11-19 21:00:00 3.7 0 Calma 5 Norte 0 -- -- 97
2019-11-19 20:00:00 3.9 0 Calma 4 Norte 0 -- -- 96
2019-11-19 19:00:00 4.8 0 Calma 3 Nordeste 0 -- -- 93
2019-11-19 18:00:00 6.8 0 Calma 8 Noroeste 0 -- -- 87
2019-11-19 17:00:00 11.4 4 Noroeste 14 Noroeste 0 -- -- 67
2019-11-19 16:00:00 13.5 8 Noroeste 21 Oeste 0 -- -- 57
2019-11-19 15:00:00 14 9 Oeste 19 Noroeste 0 -- -- 57
2019-11-19 14:00:00 13.1 4 Noroeste 19 Noroeste 0 -- -- 65
2019-11-19 13:00:00 13.5 8 Noroeste 18 Oeste 0 -- -- 64
2019-11-19 12:00:00 13.2 8 Noroeste 18 Noroeste 0 -- -- 68
2019-11-19 11:00:00 14.6 3 Sudoeste 14 Noroeste 0 -- -- 72
2019-11-19 10:00:00 12.2 2 Sudoeste 5 Sudoeste 0 -- -- 95
2019-11-19 09:00:00 8.4 0 Calma 4 Norte 0 -- -- 100
2019-11-19 08:00:00 3 2 Norte 5 Norte 0 -- -- 100
2019-11-19 07:00:00 3.3 0 Calma 5 Nordeste 0 -- -- 100
2019-11-19 06:00:00 3.7 0 Calma 4 Norte 0 -- -- 100
2019-11-19 05:00:00 4.6 0 Calma 6 Sur 0 -- -- 100
2019-11-19 04:00:00 5.1 2 Nordeste 10 Noroeste 0 -- -- 99
2019-11-19 03:00:00 5.5 4 Norte 9 Nordeste 0 -- -- 98
2019-11-19 02:00:00 6.6 4 Norte 6 Norte 0 -- -- 97
2019-11-19 01:00:00 8 0 Calma 6 Noroeste 0.2 -- -- 96
2019-11-19 00:00:00 8.5 3 Norte 14 Noroeste 1.2 -- -- 94
2019-11-18 23:00:00 9.1 5 Noroeste 10 Norte 1 -- -- 92
2019-11-18 22:00:00 8.8 0 Calma 10 Nordeste 0 -- -- 83
2019-11-18 21:00:00 9.2 2 Norte 14 Norte 0 -- -- 80
2019-11-18 20:00:00 9.4 3 Norte 15 Nordeste 0 -- -- 75
2019-11-18 19:00:00 10.4 4 Norte 32 Norte 0 -- -- 72
2019-11-18 18:00:00 11.3 9 Norte 27 Nordeste 0 -- -- 73
2019-11-18 17:00:00 11.4 13 Norte 26 Nordeste 0 -- -- 72
2019-11-18 16:00:00 12.7 9 Norte 36 Norte 0 -- -- 74
2019-11-18 15:00:00 12.5 10 Norte 28 Nordeste 0 -- -- 78
2019-11-18 14:00:00 12.5 10 Norte 28 Norte 0.2 -- -- 82
2019-11-18 13:00:00 14.3 9 Noroeste 23 Noroeste 0 -- -- 70
2019-11-18 12:00:00 12.8 8 Norte 23 Norte 0 -- -- 80
2019-11-18 11:00:00 13.5 6 Noroeste 22 Noroeste 0 -- -- 72
2019-11-18 10:00:00 12.3 8 Norte 18 Norte 0 -- -- 79
2019-11-18 09:00:00 11.9 12 Norte 31 Norte 0 -- -- 81
2019-11-18 08:00:00 11.1 5 Norte 24 Noroeste 0 -- -- 94
2019-11-18 07:00:00 10.5 4 Noroeste 17 Noroeste 0 -- -- 97
2019-11-18 06:00:00 10.3 4 Noroeste 12 Oeste 0.6 -- -- 99
2019-11-18 05:00:00 10.1 6 Noroeste 12 Oeste 0.4 -- -- 99
2019-11-18 04:00:00 10.2 2 Norte 8 Norte 0.2 -- -- 98
2019-11-18 03:00:00 10.5 0 Calma 5 Norte 0.2 -- -- 97
2019-11-18 02:00:00 11 2 Nordeste 10 Este 1 -- -- 95
2019-11-18 01:00:00 12.2 4 Oeste 14 Oeste 0.2 -- -- 86
2019-11-18 00:00:00 10.2 2 Oeste 7 Oeste 0 -- -- 95
2019-11-17 23:00:00 9.4 4 Norte 6 Norte 0 -- -- 95
2019-11-17 22:00:00 8.7 2 Norte 6 Norte 0 -- -- 95
2019-11-17 21:00:00 7.9 3 Norte 6 Nordeste 0 -- -- 94
2019-11-17 20:00:00 7.9 0 Calma 5 Norte 0 -- -- 92
2019-11-17 19:00:00 8.5 3 Norte 6 Noroeste 0 -- -- 89
2019-11-17 18:00:00 9.8 0 Calma 19 Oeste 0 -- -- 79
2019-11-17 17:00:00 13.2 9 Oeste 28 Oeste 0 -- -- 65
2019-11-17 16:00:00 14.4 10 Sudoeste 22 Sudoeste 0 -- -- 57
2019-11-17 15:00:00 15.1 9 Oeste 37 Oeste 0 -- -- 57
2019-11-17 14:00:00 14.9 15 Sudoeste 33 Sudoeste 0 -- -- 58
2019-11-17 13:00:00 14.1 9 Oeste 27 Oeste 0 -- -- 61
2019-11-17 12:00:00 14.1 9 Oeste 29 Sudoeste 0 -- -- 55
2019-11-17 11:00:00 15.1 12 Oeste 31 Noroeste 0 -- -- 48
2019-11-17 10:00:00 14.8 12 Oeste 36 Sudoeste 0 -- -- 53
2019-11-17 09:00:00 14 7 Oeste 25 Noroeste 0 -- -- 51
2019-11-17 08:00:00 11.9 9 Noroeste 20 Noroeste 0 -- -- 60
2019-11-17 07:00:00 11.6 7 Oeste 15 Oeste 0 -- -- 57
2019-11-17 06:00:00 12.4 6 Oeste 20 Oeste 0 -- -- 55
2019-11-17 05:00:00 12.2 7 Oeste 33 Noroeste 0 -- -- 57
2019-11-17 04:00:00 12.6 12 Noroeste 42 Noroeste 0 -- -- 54
2019-11-17 03:00:00 12.4 16 Noroeste 44 Noroeste 0 -- -- 55
2019-11-17 02:00:00 12.3 18 Noroeste 42 Noroeste 0.6 -- -- 56
2019-11-17 01:00:00 12.9 11 Noroeste 31 Oeste 0 -- -- 58
2019-11-17 00:00:00 12.8 13 Noroeste 37 Noroeste 0 -- -- 57
2019-11-16 23:00:00 12.2 15 Noroeste 37 Noroeste 0.2 -- -- 60
2019-11-16 22:00:00 11.4 6 Noroeste 30 Norte 0 -- -- 64
2019-11-16 21:00:00 11 8 Noroeste 31 Oeste 0 -- -- 67
2019-11-16 20:00:00 10.5 3 Noroeste 16 Noroeste 0 -- -- 82
2019-11-16 19:00:00 10.4 5 Noroeste 21 Noroeste 0 -- -- 82
2019-11-16 18:00:00 9.3 5 Noroeste 13 Noroeste 0 -- -- 85
2019-11-16 17:00:00 10.3 4 Norte 23 Norte 0 -- -- 82
2019-11-16 16:00:00 11.7 4 Nordeste 8 Norte 0 -- -- 88
2019-11-16 15:00:00 9.9 0 Calma 6 Sudeste 1.2 -- -- 93
2019-11-16 14:00:00 9.2 8 Nordeste 21 Este 2.4 -- -- 86
2019-11-16 13:00:00 13.6 5 Noroeste 17 Noroeste 0 -- -- 69
2019-11-16 12:00:00 13.4 2 Sur 4 Sur 0 -- -- 74
2019-11-16 11:00:00 10.8 0 Calma 3 Oeste 0 -- -- 91
2019-11-16 10:00:00 8.6 0 Calma 3 Oeste 0 -- -- 98
2019-11-16 09:00:00 7.1 3 Norte 7 Sudeste 0 -- -- 99
2019-11-16 08:00:00 5.4 0 Calma 8 Noroeste 0 -- -- 99
2019-11-16 07:00:00 5.7 3 Norte 11 Noroeste 0 -- -- 99
2019-11-16 06:00:00 4.8 3 Norte 6 Sudoeste 0 -- -- 98
2019-11-16 05:00:00 5.7 3 Norte 9 Nordeste 0 -- -- 97
2019-11-16 04:00:00 6.6 3 Noroeste 17 Norte 0 -- -- 96
2019-11-16 03:00:00 7 4 Norte 15 Norte 0.2 -- -- 97
2019-11-16 02:00:00 7.5 10 Norte 36 Oeste 7.4 -- -- 96
2019-11-16 01:00:00 6.5 0 Calma 9 Norte 0 -- -- 100
2019-11-16 00:00:00 3.8 2 Norte 4 Oeste 0 -- -- 99